sensor_id;sensor_type;location;lat;lon;timestamp;P1;durP1;ratioP1;P2;durP2;ratioP2
66581;SDS011;53438;48.898;2.308;2023-04-06T03:02:35;16.73;;;9.95;;
66581;SDS011;53438;48.898;2.308;2023-04-06T03:05:01;18.92;;;9.77;;
66581;SDS011;53438;48.898;2.308;2023-04-06T03:07:28;14.75;;;9.15;;
66581;SDS011;53438;48.898;2.308;2023-04-06T03:09:53;15.55;;;8.95;;
66581;SDS011;53438;48.898;2.308;2023-04-06T03:12:19;16.63;;;9.07;;
66581;SDS011;53438;48.898;2.308;2023-04-06T03:14:45;16.42;;;9.10;;
66581;SDS011;53438;48.898;2.308;2023-04-06T03:17:10;18.02;;;8.88;;
66581;SDS011;53438;48.898;2.308;2023-04-06T03:19:35;15.90;;;8.63;;
66581;SDS011;53438;48.898;2.308;2023-04-06T03:22:01;17.33;;;8.93;;
66581;SDS011;53438;48.898;2.308;2023-04-06T03:24:27;16.47;;;8.73;;
66581;SDS011;53438;48.898;2.308;2023-04-06T03:26:52;17.33;;;8.52;;
66581;SDS011;53438;48.898;2.308;2023-04-06T03:29:19;17.27;;;9.50;;
66581;SDS011;53438;48.898;2.308;2023-04-06T03:31:45;18.40;;;9.85;;
66581;SDS011;53438;48.898;2.308;2023-04-06T03:34:10;16.30;;;8.93;;
66581;SDS011;53438;48.898;2.308;2023-04-06T03:36:36;18.87;;;10.13;;
66581;SDS011;53438;48.898;2.308;2023-04-06T03:39:01;18.57;;;9.77;;
66581;SDS011;53438;48.898;2.308;2023-04-06T03:41:27;21.27;;;10.20;;
66581;SDS011;53438;48.898;2.308;2023-04-06T03:43:52;18.37;;;9.43;;
66581;SDS011;53438;48.898;2.308;2023-04-06T03:46:17;16.58;;;9.10;;
66581;SDS011;53438;48.898;2.308;2023-04-06T03:48:43;16.63;;;8.90;;
66581;SDS011;53438;48.898;2.308;2023-04-06T03:51:08;18.30;;;8.97;;
66581;SDS011;53438;48.898;2.308;2023-04-06T03:53:34;18.63;;;9.07;;
66581;SDS011;53438;48.898;2.308;2023-04-06T03:56:01;19.55;;;9.50;;
66581;SDS011;53438;48.898;2.308;2023-04-06T03:58:27;19.10;;;9.87;;
66581;SDS011;53438;48.898;2.308;2023-04-06T04:00:52;19.15;;;8.93;;
66581;SDS011;53438;48.898;2.308;2023-04-06T04:03:17;18.65;;;9.55;;
66581;SDS011;53438;48.898;2.308;2023-04-06T04:05:43;18.80;;;9.30;;
66581;SDS011;53438;48.898;2.308;2023-04-06T04:08:08;15.07;;;8.67;;
66581;SDS011;53438;48.898;2.308;2023-04-06T04:10:34;20.47;;;11.50;;
66581;SDS011;53438;48.898;2.308;2023-04-06T04:12:59;17.60;;;9.17;;
66581;SDS011;53438;48.898;2.308;2023-04-06T04:15:24;19.13;;;9.18;;
66581;SDS011;53438;48.898;2.308;2023-04-06T04:17:50;17.10;;;10.00;;
66581;SDS011;53438;48.898;2.308;2023-04-06T04:20:15;19.00;;;9.70;;
66581;SDS011;53438;48.898;2.308;2023-04-06T04:22:41;17.80;;;8.90;;
66581;SDS011;53438;48.898;2.308;2023-04-06T04:25:07;19.92;;;9.73;;
66581;SDS011;53438;48.898;2.308;2023-04-06T04:27:32;18.30;;;9.47;;
66581;SDS011;53438;48.898;2.308;2023-04-06T04:29:58;15.83;;;9.17;;
66581;SDS011;53438;48.898;2.308;2023-04-06T04:32:23;16.95;;;8.63;;
66581;SDS011;53438;48.898;2.308;2023-04-06T04:34:52;17.73;;;9.43;;
66581;SDS011;53438;48.898;2.308;2023-04-06T04:37:18;18.00;;;8.52;;
66581;SDS011;53438;48.898;2.308;2023-04-06T04:39:44;13.93;;;8.67;;
66581;SDS011;53438;48.898;2.308;2023-04-06T04:42:10;17.95;;;9.13;;
66581;SDS011;53438;48.898;2.308;2023-04-06T04:44:35;16.60;;;7.87;;
66581;SDS011;53438;48.898;2.308;2023-04-06T04:47:01;14.93;;;8.40;;
66581;SDS011;53438;48.898;2.308;2023-04-06T04:49:26;14.65;;;7.93;;
66581;SDS011;53438;48.898;2.308;2023-04-06T04:51:51;16.97;;;8.13;;
66581;SDS011;53438;48.898;2.308;2023-04-06T04:54:18;21.30;;;8.90;;
66581;SDS011;53438;48.898;2.308;2023-04-06T04:56:44;17.20;;;8.80;;
66581;SDS011;53438;48.898;2.308;2023-04-06T04:59:10;16.88;;;7.68;;
66581;SDS011;53438;48.898;2.308;2023-04-06T05:01:36;17.23;;;9.13;;
66581;SDS011;53438;48.898;2.308;2023-04-06T05:04:02;18.95;;;8.95;;
66581;SDS011;53438;48.898;2.308;2023-04-06T05:06:27;16.52;;;9.10;;
66581;SDS011;53438;48.898;2.308;2023-04-06T05:08:52;15.97;;;8.97;;
66581;SDS011;53438;48.898;2.308;2023-04-06T05:11:18;18.80;;;8.23;;
66581;SDS011;53438;48.898;2.308;2023-04-06T05:13:43;15.77;;;8.43;;
66581;SDS011;53438;48.898;2.308;2023-04-06T05:16:09;16.97;;;8.60;;
66581;SDS011;53438;48.898;2.308;2023-04-06T05:18:34;14.07;;;7.90;;
66581;SDS011;53438;48.898;2.308;2023-04-06T05:21:00;16.07;;;6.63;;
66581;SDS011;53438;48.898;2.308;2023-04-06T05:23:25;13.47;;;6.97;;
66581;SDS011;53438;48.898;2.308;2023-04-06T05:25:51;13.53;;;6.60;;
66581;SDS011;53438;48.898;2.308;2023-04-06T05:28:16;12.35;;;6.75;;
66581;SDS011;53438;48.898;2.308;2023-04-06T05:30:43;13.27;;;6.32;;
66581;SDS011;53438;48.898;2.308;2023-04-06T05:33:10;16.00;;;7.10;;
66581;SDS011;53438;48.898;2.308;2023-04-06T05:35:36;14.38;;;7.18;;
66581;SDS011;53438;48.898;2.308;2023-04-06T05:38:01;11.27;;;6.77;;
66581;SDS011;53438;48.898;2.308;2023-04-06T05:40:27;14.43;;;7.37;;
66581;SDS011;53438;48.898;2.308;2023-04-06T05:42:52;14.80;;;8.35;;
66581;SDS011;53438;48.898;2.308;2023-04-06T05:45:18;17.03;;;6.27;;
66581;SDS011;53438;48.898;2.308;2023-04-06T05:47:44;13.52;;;6.60;;
66581;SDS011;53438;48.898;2.308;2023-04-06T05:50:10;14.20;;;7.05;;
66581;SDS011;53438;48.898;2.308;2023-04-06T05:52:36;13.67;;;7.47;;
66581;SDS011;53438;48.898;2.308;2023-04-06T05:55:02;14.60;;;7.00;;
66581;SDS011;53438;48.898;2.308;2023-04-06T05:57:28;15.33;;;7.03;;
66581;SDS011;53438;48.898;2.308;2023-04-06T05:59:54;14.23;;;7.25;;
66581;SDS011;53438;48.898;2.308;2023-04-06T06:02:20;16.97;;;7.07;;
66581;SDS011;53438;48.898;2.308;2023-04-06T06:04:46;13.27;;;7.10;;
66581;SDS011;53438;48.898;2.308;2023-04-06T06:07:11;13.30;;;6.83;;
66581;SDS011;53438;48.898;2.308;2023-04-06T06:09:36;14.87;;;6.87;;
66581;SDS011;53438;48.898;2.308;2023-04-06T06:12:02;15.77;;;6.93;;
66581;SDS011;53438;48.898;2.308;2023-04-06T06:14:27;14.13;;;6.83;;
66581;SDS011;53438;48.898;2.308;2023-04-06T06:16:56;16.85;;;7.28;;
66581;SDS011;53438;48.898;2.308;2023-04-06T06:19:21;15.10;;;7.50;;
66581;SDS011;53438;48.898;2.308;2023-04-06T06:21:46;14.07;;;7.40;;
66581;SDS011;53438;48.898;2.308;2023-04-06T06:24:12;12.63;;;7.53;;
66581;SDS011;53438;48.898;2.308;2023-04-06T06:26:37;13.40;;;6.80;;
66581;SDS011;53438;48.898;2.308;2023-04-06T06:29:04;17.02;;;7.72;;
66581;SDS011;53438;48.898;2.308;2023-04-06T06:31:30;17.25;;;7.75;;
66581;SDS011;53438;48.898;2.308;2023-04-06T06:33:56;22.85;;;11.20;;
66581;SDS011;53438;48.898;2.308;2023-04-06T06:36:21;19.98;;;8.40;;
66581;SDS011;53438;48.898;2.308;2023-04-06T06:38:47;17.67;;;8.47;;
66581;SDS011;53438;48.898;2.308;2023-04-06T06:41:12;16.47;;;7.83;;
66581;SDS011;53438;48.898;2.308;2023-04-06T06:43:38;13.60;;;6.70;;
66581;SDS011;53438;48.898;2.308;2023-04-06T06:46:04;14.83;;;7.33;;
66581;SDS011;53438;48.898;2.308;2023-04-06T06:48:29;10.90;;;6.72;;
66581;SDS011;53438;48.898;2.308;2023-04-06T06:50:55;14.18;;;7.40;;
66581;SDS011;53438;48.898;2.308;2023-04-06T06:53:21;13.85;;;7.43;;
66581;SDS011;53438;48.898;2.308;2023-04-06T06:55:47;18.00;;;8.40;;
66581;SDS011;53438;48.898;2.308;2023-04-06T06:58:17;16.50;;;7.38;;
66581;SDS011;53438;48.898;2.308;2023-04-06T07:00:43;17.63;;;8.07;;
66581;SDS011;53438;48.898;2.308;2023-04-06T07:03:08;18.40;;;7.32;;
66581;SDS011;53438;48.898;2.308;2023-04-06T07:05:34;14.27;;;7.53;;
66581;SDS011;53438;48.898;2.308;2023-04-06T07:07:59;17.30;;;8.00;;
66581;SDS011;53438;48.898;2.308;2023-04-06T07:10:25;20.77;;;8.03;;
66581;SDS011;53438;48.898;2.308;2023-04-06T07:12:51;12.55;;;6.90;;
66581;SDS011;53438;48.898;2.308;2023-04-06T07:15:17;18.60;;;8.07;;
66581;SDS011;53438;48.898;2.308;2023-04-06T07:17:42;27.85;;;9.20;;
66581;SDS011;53438;48.898;2.308;2023-04-06T07:20:10;16.25;;;7.88;;
66581;SDS011;53438;48.898;2.308;2023-04-06T07:22:36;12.73;;;6.63;;
66581;SDS011;53438;48.898;2.308;2023-04-06T07:25:02;15.95;;;7.68;;
66581;SDS011;53438;48.898;2.308;2023-04-06T07:27:28;16.02;;;8.15;;
66581;SDS011;53438;48.898;2.308;2023-04-06T07:29:53;20.57;;;8.70;;
66581;SDS011;53438;48.898;2.308;2023-04-06T07:32:18;17.07;;;7.53;;
66581;SDS011;53438;48.898;2.308;2023-04-06T07:34:44;13.13;;;7.10;;
66581;SDS011;53438;48.898;2.308;2023-04-06T07:37:10;18.85;;;8.30;;
66581;SDS011;53438;48.898;2.308;2023-04-06T07:39:35;15.33;;;7.13;;
66581;SDS011;53438;48.898;2.308;2023-04-06T07:42:01;20.17;;;8.43;;
66581;SDS011;53438;48.898;2.308;2023-04-06T07:44:28;15.85;;;8.43;;
66581;SDS011;53438;48.898;2.308;2023-04-06T07:46:53;16.40;;;8.27;;
66581;SDS011;53438;48.898;2.308;2023-04-06T07:49:18;18.07;;;8.43;;
66581;SDS011;53438;48.898;2.308;2023-04-06T07:51:45;15.20;;;7.50;;
66581;SDS011;53438;48.898;2.308;2023-04-06T07:54:12;16.77;;;8.43;;
66581;SDS011;53438;48.898;2.308;2023-04-06T07:56:37;16.70;;;8.52;;
66581;SDS011;53438;48.898;2.308;2023-04-06T07:59:02;14.80;;;8.00;;
66581;SDS011;53438;48.898;2.308;2023-04-06T08:01:28;18.27;;;9.00;;
66581;SDS011;53438;48.898;2.308;2023-04-06T08:03:56;19.80;;;10.00;;
66581;SDS011;53438;48.898;2.308;2023-04-06T08:06:22;18.50;;;8.50;;
66581;SDS011;53438;48.898;2.308;2023-04-06T08:08:47;17.10;;;8.93;;
66581;SDS011;53438;48.898;2.308;2023-04-06T08:11:12;17.07;;;9.83;;
66581;SDS011;53438;48.898;2.308;2023-04-06T08:13:38;15.57;;;9.03;;
66581;SDS011;53438;48.898;2.308;2023-04-06T08:16:03;17.83;;;8.80;;
66581;SDS011;53438;48.898;2.308;2023-04-06T08:18:29;15.53;;;8.30;;
66581;SDS011;53438;48.898;2.308;2023-04-06T08:20:55;15.35;;;8.43;;
66581;SDS011;53438;48.898;2.308;2023-04-06T08:23:21;19.52;;;9.32;;
66581;SDS011;53438;48.898;2.308;2023-04-06T08:25:47;17.95;;;9.68;;
66581;SDS011;53438;48.898;2.308;2023-04-06T08:28:13;15.00;;;8.50;;
66581;SDS011;53438;48.898;2.308;2023-04-06T08:30:41;19.88;;;9.48;;
66581;SDS011;53438;48.898;2.308;2023-04-06T08:33:07;26.23;;;11.23;;
66581;SDS011;53438;48.898;2.308;2023-04-06T08:35:33;29.52;;;11.00;;
66581;SDS011;53438;48.898;2.308;2023-04-06T08:37:59;20.67;;;9.60;;
66581;SDS011;53438;48.898;2.308;2023-04-06T08:40:25;30.33;;;10.30;;
66581;SDS011;53438;48.898;2.308;2023-04-06T08:42:52;23.37;;;11.37;;
66581;SDS011;53438;48.898;2.308;2023-04-06T08:45:20;17.92;;;10.45;;
66581;SDS011;53438;48.898;2.308;2023-04-06T08:47:47;21.42;;;9.07;;
66581;SDS011;53438;48.898;2.308;2023-04-06T08:50:14;28.48;;;10.55;;
66581;SDS011;53438;48.898;2.308;2023-04-06T08:52:42;28.53;;;10.80;;
66581;SDS011;53438;48.898;2.308;2023-04-06T08:55:08;29.35;;;11.55;;
66581;SDS011;53438;48.898;2.308;2023-04-06T08:57:34;26.00;;;11.83;;
66581;SDS011;53438;48.898;2.308;2023-04-06T09:00:01;19.17;;;11.38;;
66581;SDS011;53438;48.898;2.308;2023-04-06T09:02:27;18.27;;;10.68;;
66581;SDS011;53438;48.898;2.308;2023-04-06T09:04:53;17.57;;;9.80;;
66581;SDS011;53438;48.898;2.308;2023-04-06T09:07:19;17.98;;;10.43;;
66581;SDS011;53438;48.898;2.308;2023-04-06T09:09:45;23.55;;;11.10;;
66581;SDS011;53438;48.898;2.308;2023-04-06T09:12:28;28.03;;;10.70;;
66581;SDS011;53438;48.898;2.308;2023-04-06T09:14:55;27.02;;;11.68;;
66581;SDS011;53438;48.898;2.308;2023-04-06T09:17:24;36.53;;;12.70;;
66581;SDS011;53438;48.898;2.308;2023-04-06T09:19:51;24.80;;;10.75;;
66581;SDS011;53438;48.898;2.308;2023-04-06T09:22:17;27.43;;;12.13;;
66581;SDS011;53438;48.898;2.308;2023-04-06T09:24:43;20.02;;;12.23;;
66581;SDS011;53438;48.898;2.308;2023-04-06T09:27:11;20.13;;;11.90;;
66581;SDS011;53438;48.898;2.308;2023-04-06T09:29:36;18.50;;;11.70;;
66581;SDS011;53438;48.898;2.308;2023-04-06T09:32:05;19.30;;;10.15;;
66581;SDS011;53438;48.898;2.308;2023-04-06T09:34:32;17.87;;;10.67;;
66581;SDS011;53438;48.898;2.308;2023-04-06T09:37:11;17.25;;;9.85;;
66581;SDS011;53438;48.898;2.308;2023-04-06T09:39:37;19.45;;;10.05;;
66581;SDS011;53438;48.898;2.308;2023-04-06T09:42:03;14.83;;;9.70;;
66581;SDS011;53438;48.898;2.308;2023-04-06T09:44:28;15.80;;;9.53;;
66581;SDS011;53438;48.898;2.308;2023-04-06T09:46:55;16.42;;;8.82;;
66581;SDS011;53438;48.898;2.308;2023-04-06T09:49:20;15.50;;;9.43;;
66581;SDS011;53438;48.898;2.308;2023-04-06T09:51:51;15.27;;;7.85;;
66581;SDS011;53438;48.898;2.308;2023-04-06T09:54:20;13.48;;;8.13;;
66581;SDS011;53438;48.898;2.308;2023-04-06T09:56:58;15.52;;;7.93;;
66581;SDS011;53438;48.898;2.308;2023-04-06T10:00:07;14.63;;;8.13;;
66581;SDS011;53438;48.898;2.308;2023-04-06T10:02:28;12.00;;;6.85;;
66581;SDS011;53438;48.898;2.308;2023-04-06T10:05:19;12.02;;;7.32;;
66581;SDS011;53438;48.898;2.308;2023-04-06T10:07:53;10.30;;;6.90;;
66581;SDS011;53438;48.898;2.308;2023-04-06T10:10:22;10.75;;;5.88;;
66581;SDS011;53438;48.898;2.308;2023-04-06T10:12:49;8.53;;;5.97;;
66581;SDS011;53438;48.898;2.308;2023-04-06T10:15:15;9.63;;;5.57;;
66581;SDS011;53438;48.898;2.308;2023-04-06T10:17:41;8.53;;;5.70;;
66581;SDS011;53438;48.898;2.308;2023-04-06T10:20:15;11.48;;;6.68;;
66581;SDS011;53438;48.898;2.308;2023-04-06T10:25:51;9.37;;;5.17;;
66581;SDS011;53438;48.898;2.308;2023-04-06T10:28:18;8.52;;;5.22;;
66581;SDS011;53438;48.898;2.308;2023-04-06T10:30:44;8.95;;;5.43;;
66581;SDS011;53438;48.898;2.308;2023-04-06T10:33:17;8.35;;;5.20;;
66581;SDS011;53438;48.898;2.308;2023-04-06T10:35:44;9.50;;;5.70;;
66581;SDS011;53438;48.898;2.308;2023-04-06T10:38:10;8.50;;;5.75;;
66581;SDS011;53438;48.898;2.308;2023-04-06T10:40:38;9.52;;;5.32;;
66581;SDS011;53438;48.898;2.308;2023-04-06T10:43:09;9.20;;;5.30;;
66581;SDS011;53438;48.898;2.308;2023-04-06T10:45:39;9.43;;;4.93;;
66581;SDS011;53438;48.898;2.308;2023-04-06T10:48:12;9.38;;;4.97;;
66581;SDS011;53438;48.898;2.308;2023-04-06T10:50:39;11.45;;;6.25;;
66581;SDS011;53438;48.898;2.308;2023-04-06T10:53:05;9.30;;;5.18;;
66581;SDS011;53438;48.898;2.308;2023-04-06T10:55:31;12.45;;;6.07;;
66581;SDS011;53438;48.898;2.308;2023-04-06T10:57:56;7.10;;;5.22;;
66581;SDS011;53438;48.898;2.308;2023-04-06T11:00:22;7.00;;;4.43;;
66581;SDS011;53438;48.898;2.308;2023-04-06T11:02:48;9.90;;;4.53;;
66581;SDS011;53438;48.898;2.308;2023-04-06T11:05:14;7.10;;;4.50;;
66581;SDS011;53438;48.898;2.308;2023-04-06T11:07:40;7.95;;;4.80;;
66581;SDS011;53438;48.898;2.308;2023-04-06T11:10:06;11.23;;;5.20;;
66581;SDS011;53438;48.898;2.308;2023-04-06T11:12:34;7.63;;;4.20;;
66581;SDS011;53438;48.898;2.308;2023-04-06T11:15:00;8.73;;;4.93;;
66581;SDS011;53438;48.898;2.308;2023-04-06T11:17:31;9.32;;;4.90;;
66581;SDS011;53438;48.898;2.308;2023-04-06T11:19:58;11.05;;;5.85;;
66581;SDS011;53438;48.898;2.308;2023-04-06T11:22:24;8.87;;;4.50;;
66581;SDS011;53438;48.898;2.308;2023-04-06T11:24:51;8.73;;;4.80;;
66581;SDS011;53438;48.898;2.308;2023-04-06T11:27:17;8.18;;;5.05;;
66581;SDS011;53438;48.898;2.308;2023-04-06T11:29:44;8.35;;;4.85;;
66581;SDS011;53438;48.898;2.308;2023-04-06T11:32:19;8.17;;;3.90;;
66581;SDS011;53438;48.898;2.308;2023-04-06T11:34:46;7.65;;;4.18;;
66581;SDS011;53438;48.898;2.308;2023-04-06T11:37:13;7.68;;;4.25;;
66581;SDS011;53438;48.898;2.308;2023-04-06T11:39:39;8.00;;;4.37;;
66581;SDS011;53438;48.898;2.308;2023-04-06T11:42:06;12.25;;;4.75;;
66581;SDS011;53438;48.898;2.308;2023-04-06T11:46:58;6.97;;;3.63;;
66581;SDS011;53438;48.898;2.308;2023-04-06T11:49:30;5.80;;;3.47;;
66581;SDS011;53438;48.898;2.308;2023-04-06T11:51:56;8.05;;;3.60;;
66581;SDS011;53438;48.898;2.308;2023-04-06T11:54:30;9.52;;;3.75;;
66581;SDS011;53438;48.898;2.308;2023-04-06T11:57:05;6.53;;;2.83;;
66581;SDS011;53438;48.898;2.308;2023-04-06T11:59:31;7.43;;;2.67;;
66581;SDS011;53438;48.898;2.308;2023-04-06T12:01:57;6.72;;;2.42;;
66581;SDS011;53438;48.898;2.308;2023-04-06T12:04:23;6.15;;;2.67;;
66581;SDS011;53438;48.898;2.308;2023-04-06T12:06:48;7.60;;;3.10;;
66581;SDS011;53438;48.898;2.308;2023-04-06T12:09:14;8.57;;;3.28;;
66581;SDS011;53438;48.898;2.308;2023-04-06T12:11:42;10.20;;;3.30;;
66581;SDS011;53438;48.898;2.308;2023-04-06T12:14:08;13.73;;;3.88;;
66581;SDS011;53438;48.898;2.308;2023-04-06T12:16:34;10.93;;;3.30;;
66581;SDS011;53438;48.898;2.308;2023-04-06T12:18:59;11.18;;;4.03;;
66581;SDS011;53438;48.898;2.308;2023-04-06T12:21:29;7.53;;;2.67;;
66581;SDS011;53438;48.898;2.308;2023-04-06T12:23:56;3.78;;;1.98;;
66581;SDS011;53438;48.898;2.308;2023-04-06T12:26:22;7.30;;;2.22;;
66581;SDS011;53438;48.898;2.308;2023-04-06T12:28:47;7.40;;;2.80;;
66581;SDS011;53438;48.898;2.308;2023-04-06T12:31:16;9.70;;;1.90;;
66581;SDS011;53438;48.898;2.308;2023-04-06T12:33:46;7.75;;;2.38;;
66581;SDS011;53438;48.898;2.308;2023-04-06T12:36:13;5.15;;;2.10;;
66581;SDS011;53438;48.898;2.308;2023-04-06T12:38:40;7.90;;;2.33;;
66581;SDS011;53438;48.898;2.308;2023-04-06T12:41:06;5.45;;;2.15;;
66581;SDS011;53438;48.898;2.308;2023-04-06T12:43:32;6.22;;;1.90;;
66581;SDS011;53438;48.898;2.308;2023-04-06T12:45:57;14.07;;;5.63;;
66581;SDS011;53438;48.898;2.308;2023-04-06T12:48:23;8.63;;;2.03;;
66581;SDS011;53438;48.898;2.308;2023-04-06T12:50:55;18.00;;;3.73;;
66581;SDS011;53438;48.898;2.308;2023-04-06T12:53:22;9.63;;;2.25;;
66581;SDS011;53438;48.898;2.308;2023-04-06T12:55:48;10.33;;;2.50;;
66581;SDS011;53438;48.898;2.308;2023-04-06T12:58:13;8.53;;;1.87;;
66581;SDS011;53438;48.898;2.308;2023-04-06T13:00:39;5.60;;;1.40;;
66581;SDS011;53438;48.898;2.308;2023-04-06T13:03:05;8.07;;;1.70;;
66581;SDS011;53438;48.898;2.308;2023-04-06T13:05:31;6.85;;;1.90;;
66581;SDS011;53438;48.898;2.308;2023-04-06T13:07:56;9.93;;;1.63;;
66581;SDS011;53438;48.898;2.308;2023-04-06T13:10:22;4.90;;;1.60;;
66581;SDS011;53438;48.898;2.308;2023-04-06T13:12:47;3.53;;;1.83;;
66581;SDS011;53438;48.898;2.308;2023-04-06T13:15:13;7.93;;;1.90;;
66581;SDS011;53438;48.898;2.308;2023-04-06T13:17:38;8.90;;;1.77;;
66581;SDS011;53438;48.898;2.308;2023-04-06T13:20:04;5.17;;;1.60;;
66581;SDS011;53438;48.898;2.308;2023-04-06T13:22:30;5.90;;;1.65;;
66581;SDS011;53438;48.898;2.308;2023-04-06T13:24:56;7.93;;;1.60;;
66581;SDS011;53438;48.898;2.308;2023-04-06T13:27:21;5.67;;;1.60;;
66581;SDS011;53438;48.898;2.308;2023-04-06T13:29:47;8.52;;;1.63;;
66581;SDS011;53438;48.898;2.308;2023-04-06T13:32:12;7.20;;;1.60;;
66581;SDS011;53438;48.898;2.308;2023-04-06T13:34:37;4.97;;;1.40;;
66581;SDS011;53438;48.898;2.308;2023-04-06T13:37:03;7.13;;;1.50;;
66581;SDS011;53438;48.898;2.308;2023-04-06T13:39:28;7.13;;;1.63;;
66581;SDS011;53438;48.898;2.308;2023-04-06T13:41:54;7.20;;;1.52;;
66581;SDS011;53438;48.898;2.308;2023-04-06T13:44:21;8.47;;;1.50;;
66581;SDS011;53438;48.898;2.308;2023-04-06T13:46:49;4.22;;;0.98;;
66581;SDS011;53438;48.898;2.308;2023-04-06T13:49:15;5.47;;;1.53;;
66581;SDS011;53438;48.898;2.308;2023-04-06T13:51:40;6.28;;;1.98;;
66581;SDS011;53438;48.898;2.308;2023-04-06T13:54:06;7.10;;;1.67;;
66581;SDS011;53438;48.898;2.308;2023-04-06T13:56:31;5.83;;;1.10;;
66581;SDS011;53438;48.898;2.308;2023-04-06T13:58:56;5.63;;;1.43;;
66581;SDS011;53438;48.898;2.308;2023-04-06T14:01:22;9.20;;;1.23;;
66581;SDS011;53438;48.898;2.308;2023-04-06T14:03:50;5.57;;;1.20;;
66581;SDS011;53438;48.898;2.308;2023-04-06T14:06:17;4.23;;;1.33;;
66581;SDS011;53438;48.898;2.308;2023-04-06T14:08:43;4.93;;;1.48;;
66581;SDS011;53438;48.898;2.308;2023-04-06T14:11:10;6.72;;;1.70;;
66581;SDS011;53438;48.898;2.308;2023-04-06T14:13:39;8.77;;;1.67;;
66581;SDS011;53438;48.898;2.308;2023-04-06T14:16:06;5.32;;;1.08;;
66581;SDS011;53438;48.898;2.308;2023-04-06T14:18:33;7.63;;;1.20;;
66581;SDS011;53438;48.898;2.308;2023-04-06T14:20:59;9.27;;;1.50;;
66581;SDS011;53438;48.898;2.308;2023-04-06T14:23:25;5.03;;;1.40;;
66581;SDS011;53438;48.898;2.308;2023-04-06T14:26:00;9.35;;;1.60;;
66581;SDS011;53438;48.898;2.308;2023-04-06T14:28:28;4.93;;;0.95;;
66581;SDS011;53438;48.898;2.308;2023-04-06T14:30:54;8.20;;;1.10;;
66581;SDS011;53438;48.898;2.308;2023-04-06T14:33:19;6.90;;;1.57;;
66581;SDS011;53438;48.898;2.308;2023-04-06T14:35:45;11.10;;;1.23;;
66581;SDS011;53438;48.898;2.308;2023-04-06T14:38:10;6.90;;;1.57;;
66581;SDS011;53438;48.898;2.308;2023-04-06T14:40:36;12.23;;;1.90;;
66581;SDS011;53438;48.898;2.308;2023-04-06T14:43:02;5.55;;;1.00;;
66581;SDS011;53438;48.898;2.308;2023-04-06T14:45:27;5.27;;;0.90;;
66581;SDS011;53438;48.898;2.308;2023-04-06T14:47:57;4.40;;;1.23;;
66581;SDS011;53438;48.898;2.308;2023-04-06T14:50:23;3.45;;;0.93;;
66581;SDS011;53438;48.898;2.308;2023-04-06T14:52:49;3.43;;;1.10;;
66581;SDS011;53438;48.898;2.308;2023-04-06T14:55:15;5.25;;;1.00;;
66581;SDS011;53438;48.898;2.308;2023-04-06T14:57:41;7.63;;;1.17;;
66581;SDS011;53438;48.898;2.308;2023-04-06T15:00:06;5.57;;;1.33;;
66581;SDS011;53438;48.898;2.308;2023-04-06T15:02:33;11.18;;;1.00;;
66581;SDS011;53438;48.898;2.308;2023-04-06T15:04:58;5.50;;;1.73;;
66581;SDS011;53438;48.898;2.308;2023-04-06T15:07:24;4.00;;;0.70;;
66581;SDS011;53438;48.898;2.308;2023-04-06T15:09:49;6.27;;;0.97;;
66581;SDS011;53438;48.898;2.308;2023-04-06T15:12:15;6.20;;;1.00;;
66581;SDS011;53438;48.898;2.308;2023-04-06T15:14:40;6.20;;;1.47;;
66581;SDS011;53438;48.898;2.308;2023-04-06T15:17:05;7.03;;;1.07;;
66581;SDS011;53438;48.898;2.308;2023-04-06T15:19:33;5.47;;;1.00;;
66581;SDS011;53438;48.898;2.308;2023-04-06T15:21:58;13.00;;;1.40;;
66581;SDS011;53438;48.898;2.308;2023-04-06T15:24:23;5.07;;;1.00;;
66581;SDS011;53438;48.898;2.308;2023-04-06T15:26:49;5.40;;;1.13;;
66581;SDS011;53438;48.898;2.308;2023-04-06T15:29:15;3.92;;;0.75;;
66581;SDS011;53438;48.898;2.308;2023-04-06T15:31:40;4.90;;;1.00;;
66581;SDS011;53438;48.898;2.308;2023-04-06T15:34:06;6.22;;;1.17;;
66581;SDS011;53438;48.898;2.308;2023-04-06T15:36:34;4.82;;;1.02;;
66581;SDS011;53438;48.898;2.308;2023-04-06T15:39:00;6.00;;;1.33;;
66581;SDS011;53438;48.898;2.308;2023-04-06T15:41:26;6.97;;;1.13;;
66581;SDS011;53438;48.898;2.308;2023-04-06T15:43:52;8.07;;;1.27;;
66581;SDS011;53438;48.898;2.308;2023-04-06T15:46:19;7.50;;;1.30;;
66581;SDS011;53438;48.898;2.308;2023-04-06T15:48:45;5.22;;;1.33;;
66581;SDS011;53438;48.898;2.308;2023-04-06T15:51:11;8.73;;;2.63;;
66581;SDS011;53438;48.898;2.308;2023-04-06T15:53:36;6.03;;;1.10;;
66581;SDS011;53438;48.898;2.308;2023-04-06T15:56:02;7.00;;;1.00;;
66581;SDS011;53438;48.898;2.308;2023-04-06T15:58:34;5.82;;;1.33;;
66581;SDS011;53438;48.898;2.308;2023-04-06T16:00:59;6.70;;;1.10;;
66581;SDS011;53438;48.898;2.308;2023-04-06T16:03:25;2.90;;;0.83;;
66581;SDS011;53438;48.898;2.308;2023-04-06T16:05:52;5.90;;;1.00;;
66581;SDS011;53438;48.898;2.308;2023-04-06T16:08:18;7.18;;;1.08;;
66581;SDS011;53438;48.898;2.308;2023-04-06T16:10:44;5.30;;;1.03;;
66581;SDS011;53438;48.898;2.308;2023-04-06T16:13:10;5.85;;;1.48;;
66581;SDS011;53438;48.898;2.308;2023-04-06T16:15:35;12.93;;;2.17;;
66581;SDS011;53438;48.898;2.308;2023-04-06T16:18:03;6.93;;;1.65;;
66581;SDS011;53438;48.898;2.308;2023-04-06T16:20:29;4.28;;;1.35;;
66581;SDS011;53438;48.898;2.308;2023-04-06T16:22:55;4.53;;;1.00;;
66581;SDS011;53438;48.898;2.308;2023-04-06T16:25:20;2.77;;;0.90;;
66581;SDS011;53438;48.898;2.308;2023-04-06T16:27:46;5.87;;;1.10;;
66581;SDS011;53438;48.898;2.308;2023-04-06T16:30:12;6.45;;;1.40;;
66581;SDS011;53438;48.898;2.308;2023-04-06T16:32:38;4.75;;;1.10;;
66581;SDS011;53438;48.898;2.308;2023-04-06T16:35:05;4.53;;;1.23;;
66581;SDS011;53438;48.898;2.308;2023-04-06T16:37:31;3.73;;;0.90;;
66581;SDS011;53438;48.898;2.308;2023-04-06T16:39:56;3.75;;;0.95;;
66581;SDS011;53438;48.898;2.308;2023-04-06T16:42:22;4.80;;;1.10;;
66581;SDS011;53438;48.898;2.308;2023-04-06T16:44:47;5.87;;;0.80;;
66581;SDS011;53438;48.898;2.308;2023-04-06T16:47:15;3.40;;;0.70;;
66581;SDS011;53438;48.898;2.308;2023-04-06T16:49:41;4.10;;;0.50;;
66581;SDS011;53438;48.898;2.308;2023-04-06T16:52:07;5.30;;;0.90;;
66581;SDS011;53438;48.898;2.308;2023-04-06T16:54:33;7.93;;;1.35;;
66581;SDS011;53438;48.898;2.308;2023-04-06T16:57:00;5.75;;;1.45;;
66581;SDS011;53438;48.898;2.308;2023-04-06T16:59:27;7.10;;;1.10;;
66581;SDS011;53438;48.898;2.308;2023-04-06T17:01:55;5.10;;;0.93;;
66581;SDS011;53438;48.898;2.308;2023-04-06T17:04:21;6.50;;;1.55;;
66581;SDS011;53438;48.898;2.308;2023-04-06T17:06:47;5.27;;;1.50;;
66581;SDS011;53438;48.898;2.308;2023-04-06T17:09:13;4.30;;;0.75;;
66581;SDS011;53438;48.898;2.308;2023-04-06T17:11:38;4.22;;;1.00;;
66581;SDS011;53438;48.898;2.308;2023-04-06T17:14:04;7.03;;;1.00;;
66581;SDS011;53438;48.898;2.308;2023-04-06T17:16:30;4.93;;;0.90;;
66581;SDS011;53438;48.898;2.308;2023-04-06T17:18:56;6.25;;;1.15;;
66581;SDS011;53438;48.898;2.308;2023-04-06T17:21:21;9.63;;;1.67;;
66581;SDS011;53438;48.898;2.308;2023-04-06T17:23:47;4.67;;;1.00;;
66581;SDS011;53438;48.898;2.308;2023-04-06T17:26:12;7.37;;;1.73;;
66581;SDS011;53438;48.898;2.308;2023-04-06T17:28:38;7.80;;;1.70;;
66581;SDS011;53438;48.898;2.308;2023-04-06T17:31:07;7.03;;;1.55;;
66581;SDS011;53438;48.898;2.308;2023-04-06T17:33:34;9.03;;;1.93;;
66581;SDS011;53438;48.898;2.308;2023-04-06T17:36:00;7.25;;;1.42;;
66581;SDS011;53438;48.898;2.308;2023-04-06T17:38:25;8.13;;;1.60;;
66581;SDS011;53438;48.898;2.308;2023-04-06T17:40:51;7.88;;;1.77;;